Time;durP1;ratioP1;P1;durP2;ratioP2;P2;SDS_P1;SDS_P2;PMS_P1;PMS_P2;Temp;Humidity;BMP_temperature;BMP_pressure;BME280_temperature;BME280_humidity;BME280_pressure;Samples;Min_cycle;Max_cycle;Signal;HPM_P1;HPM_P2
2023/01/22 00:00:14;;;;;;;10.63;4.13;;;6.00;45.40;;;;;;6317187;28;20380;-71
2023/01/22 00:03:15;;;;;;;7.82;3.13;;;6.00;45.50;;;;;;6317387;28;20499;-71
2023/01/22 00:06:16;;;;;;;8.05;3.15;;;6.00;45.50;;;;;;6316788;28;20029;-68
2023/01/22 00:09:16;;;;;;;7.80;2.90;;;6.00;45.50;;;;;;6309219;28;20040;-70
2023/01/22 00:12:17;;;;;;;9.60;3.63;;;5.90;45.60;;;;;;6300013;28;20024;-72
2023/01/22 00:15:18;;;;;;;4.28;2.53;;;5.90;45.60;;;;;;6299984;28;20477;-69
2023/01/22 00:18:19;;;;;;;7.32;3.10;;;5.90;45.60;;;;;;6299344;28;20036;-69
2023/01/22 00:21:20;;;;;;;6.07;3.45;;;5.90;45.60;;;;;;6298642;28;20070;-68
2023/01/22 00:24:21;;;;;;;6.82;3.50;;;5.80;45.60;;;;;;6299162;28;20025;-69
2023/01/22 00:27:22;;;;;;;6.55;3.65;;;6.20;46.40;;;;;;6301128;28;20449;-68
2023/01/22 00:30:23;;;;;;;5.50;3.70;;;5.90;45.70;;;;;;6346029;28;20099;-68
2023/01/22 00:33:25;;;;;;;8.48;4.00;;;5.90;45.70;;;;;;6363868;28;20027;-69
2023/01/22 00:36:26;;;;;;;7.18;2.60;;;5.90;45.70;;;;;;6358964;28;20023;-67
2023/01/22 00:39:27;;;;;;;7.78;4.40;;;5.80;45.80;;;;;;6345080;28;20034;-68
2023/01/22 00:42:28;;;;;;;12.85;4.53;;;5.80;46.00;;;;;;6306697;28;20036;-70
2023/01/22 00:45:29;;;;;;;6.00;3.60;;;5.80;46.60;;;;;;6324966;28;20476;-69
2023/01/22 00:48:30;;;;;;;7.82;4.22;;;5.80;46.90;;;;;;6323935;28;20460;-70
2023/01/22 00:51:32;;;;;;;10.68;3.70;;;5.80;47.10;;;;;;6323045;28;20385;-68
2023/01/22 00:54:33;;;;;;;18.80;4.50;;;5.80;47.20;;;;;;6299097;28;20024;-69
2023/01/22 00:57:34;;;;;;;12.00;3.55;;;5.80;47.50;;;;;;6298370;28;20504;-68
2023/01/22 01:00:35;;;;;;;8.10;3.95;;;5.80;47.60;;;;;;6280750;28;20472;-70
2023/01/22 01:03:36;;;;;;;10.30;4.55;;;5.80;47.80;;;;;;6298796;28;20025;-69
2023/01/22 01:06:38;;;;;;;11.13;4.50;;;5.80;48.00;;;;;;6298000;28;20036;-70
2023/01/22 01:09:38;;;;;;;7.40;3.55;;;5.80;48.20;;;;;;6297450;28;20400;-70
2023/01/22 01:12:39;;;;;;;6.15;3.45;;;5.70;48.20;;;;;;6297807;28;20420;-70
2023/01/22 01:15:40;;;;;;;8.25;4.03;;;5.70;48.40;;;;;;6297541;28;20032;-70
2023/01/22 01:18:41;;;;;;;8.85;3.42;;;5.80;48.50;;;;;;6298552;28;20043;-70
2023/01/22 01:21:43;;;;;;;10.60;3.63;;;5.70;48.40;;;;;;6296245;28;20032;-70
2023/01/22 01:24:43;;;;;;;4.75;2.45;;;5.70;48.20;;;;;;6305819;28;20475;-70
2023/01/22 01:27:44;;;;;;;9.15;3.55;;;5.70;48.10;;;;;;6323358;28;20031;-70
2023/01/22 01:30:45;;;;;;;7.85;4.35;;;5.80;48.10;;;;;;6323651;28;20043;-69
2023/01/22 01:33:46;;;;;;;6.32;3.67;;;5.80;48.20;;;;;;6322512;28;20032;-68
2023/01/22 01:36:47;;;;;;;12.35;2.90;;;5.80;48.10;;;;;;6308606;28;20086;-71
2023/01/22 01:39:51;;;;;;;9.68;3.53;;;5.80;48.10;;;;;;6296279;28;20032;-67
2023/01/22 01:42:52;;;;;;;7.70;4.00;;;5.80;48.00;;;;;;6296452;28;20036;-68
2023/01/22 01:45:54;;;;;;;9.50;4.72;;;5.90;48.00;;;;;;6297777;28;20025;-68
2023/01/22 01:48:55;;;;;;;5.00;3.20;;;5.80;48.20;;;;;;6296007;28;20369;-69
2023/01/22 01:52:00;;;;;;;9.57;3.83;;;5.80;48.50;;;;;;6296616;28;20036;-69
2023/01/22 01:55:02;;;;;;;8.50;3.20;;;5.80;48.70;;;;;;6297357;28;20028;-68
2023/01/22 01:58:20;;;;;;;9.25;5.10;;;5.80;48.90;;;;;;6295824;28;20029;-67
2023/01/22 02:01:22;;;;;;;11.95;3.50;;;5.80;49.10;;;;;;6297817;28;20017;-67
2023/01/22 02:04:23;;;;;;;8.48;4.32;;;5.70;49.20;;;;;;6296504;28;20028;-70
2023/01/22 02:07:24;;;;;;;8.15;4.32;;;5.70;49.40;;;;;;6296780;28;20036;-67
2023/01/22 02:10:25;;;;;;;7.88;3.70;;;5.70;49.60;;;;;;6280560;28;20067;-69
2023/01/22 02:13:29;;;;;;;7.50;3.28;;;5.60;49.80;;;;;;6297404;28;20039;-69
2023/01/22 02:16:30;;;;;;;8.70;3.50;;;5.60;49.60;;;;;;6297149;28;20102;-68
2023/01/22 02:19:31;;;;;;;12.82;3.25;;;5.60;49.40;;;;;;6296850;28;20028;-69
2023/01/22 02:22:34;;;;;;;6.57;2.70;;;5.60;49.10;;;;;;6316879;28;20016;-68
2023/01/22 02:25:36;;;;;;;10.00;2.30;;;5.60;48.90;;;;;;6322338;28;20480;-68
2023/01/22 02:28:40;;;;;;;9.80;3.28;;;5.60;48.70;;;;;;6320327;28;20089;-69
2023/01/22 02:31:41;;;;;;;5.75;2.85;;;5.60;48.50;;;;;;6317304;28;20090;-70
2023/01/22 02:34:42;;;;;;;7.25;2.45;;;5.60;48.30;;;;;;6278837;28;20033;-68
2023/01/22 02:37:43;;;;;;;7.15;2.58;;;5.60;48.80;;;;;;6296062;28;20032;-69
2023/01/22 02:40:47;;;;;;;5.97;3.53;;;5.60;48.20;;;;;;6298078;28;20020;-68
2023/01/22 02:43:51;;;;;;;12.38;3.95;;;5.60;48.20;;;;;;6296159;28;20530;-68
2023/01/22 02:46:54;;;;;;;5.55;3.13;;;5.50;48.20;;;;;;6280716;28;20031;-68
2023/01/22 02:49:55;;;;;;;6.43;2.85;;;5.50;48.40;;;;;;6300467;28;20024;-68
2023/01/22 02:52:56;;;;;;;7.90;4.18;;;5.50;48.50;;;;;;6296411;28;20493;-69
2023/01/22 02:55:57;;;;;;;4.60;2.75;;;5.50;48.80;;;;;;6298784;28;20056;-67
2023/01/22 02:59:00;;;;;;;7.25;2.72;;;5.50;48.80;;;;;;6312741;28;20364;-68
2023/01/22 03:02:01;;;;;;;8.07;3.60;;;5.40;48.70;;;;;;6296812;28;20028;-68
2023/01/22 03:05:04;;;;;;;8.90;3.45;;;5.50;48.80;;;;;;6295776;28;20476;-68
2023/01/22 03:08:05;;;;;;;7.15;2.78;;;5.50;48.70;;;;;;6296128;28;20423;-68
2023/01/22 03:11:06;;;;;;;6.82;3.50;;;5.50;48.60;;;;;;6296665;28;20033;-67
2023/01/22 03:24:06;;;;;;;3.47;2.72;;;5.50;47.70;;;;;;6295352;28;20024;-70
2023/01/22 03:27:07;;;;;;;8.68;3.35;;;5.50;47.70;;;;;;6294543;28;20029;-70
2023/01/22 03:30:10;;;;;;;6.75;2.85;;;5.50;47.50;;;;;;6294717;28;20044;-68
2023/01/22 03:33:10;;;;;;;3.28;1.98;;;5.40;47.40;;;;;;6296025;28;20362;-68
2023/01/22 03:36:13;;;;;;;8.50;2.90;;;5.50;47.40;;;;;;6296717;28;20020;-68
2023/01/22 03:39:19;;;;;;;7.55;1.98;;;5.50;47.30;;;;;;6295991;28;20146;-69
2023/01/22 03:42:20;;;;;;;7.13;2.35;;;5.50;47.20;;;;;;6295995;28;20499;-70
2023/01/22 03:45:20;;;;;;;8.93;2.72;;;5.60;47.10;;;;;;6297963;28;20504;-70
2023/01/22 03:48:23;;;;;;;3.92;1.92;;;5.50;46.90;;;;;;6299974;28;20135;-68
2023/01/22 03:51:24;;;;;;;7.68;2.90;;;5.50;47.00;;;;;;6299753;28;20044;-70
2023/01/22 03:54:25;;;;;;;7.55;3.17;;;5.50;46.90;;;;;;6298938;28;20366;-70
2023/01/22 03:57:29;;;;;;;10.07;2.70;;;5.50;47.60;;;;;;6298426;28;20033;-70
2023/01/22 04:00:30;;;;;;;11.85;3.88;;;5.50;47.10;;;;;;6298697;28;20108;-69
2023/01/22 04:03:32;;;;;;;5.22;2.50;;;5.40;47.10;;;;;;6298709;28;20020;-70
2023/01/22 04:06:35;;;;;;;6.15;2.58;;;5.40;47.20;;;;;;6298765;28;20485;-69
2023/01/22 04:09:37;;;;;;;6.57;2.83;;;5.40;47.20;;;;;;6298322;28;20101;-68
2023/01/22 04:12:37;;;;;;;3.88;2.42;;;5.30;47.20;;;;;;6298844;28;20428;-70
2023/01/22 04:15:38;;;;;;;4.40;2.55;;;5.20;47.20;;;;;;6299655;28;20064;-68
2023/01/22 04:18:49;;;;;;;8.68;3.08;;;5.20;47.20;;;;;;6298408;28;20033;-68
2023/01/22 04:22:08;;;;;;;5.30;2.70;;;5.10;47.40;;;;;;6300331;28;20089;-70
2023/01/22 04:25:10;;;;;;;4.65;1.83;;;5.10;47.50;;;;;;6298528;28;20032;-67
2023/01/22 04:28:11;;;;;;;3.97;2.55;;;5.10;47.70;;;;;;6298080;28;20388;-68
2023/01/22 04:31:12;;;;;;;8.88;2.50;;;5.10;47.80;;;;;;6298336;28;20362;-69
2023/01/22 04:34:17;;;;;;;4.32;2.35;;;5.00;47.70;;;;;;6298141;28;20032;-68
2023/01/22 04:37:23;;;;;;;7.28;2.58;;;5.00;47.80;;;;;;6297901;28;20060;-69
2023/01/22 04:40:24;;;;;;;3.45;2.20;;;5.00;48.00;;;;;;6297629;28;20077;-68
2023/01/22 04:43:25;;;;;;;5.13;2.45;;;5.00;48.20;;;;;;6299177;28;20423;-68
2023/01/22 04:46:26;;;;;;;5.32;2.20;;;5.00;48.40;;;;;;6297963;28;20126;-69
2023/01/22 04:49:27;;;;;;;3.72;2.58;;;5.00;48.60;;;;;;6297627;28;20491;-69
2023/01/22 04:52:28;;;;;;;5.25;2.47;;;5.00;48.70;;;;;;6297771;28;20073;-68
2023/01/22 04:55:29;;;;;;;7.88;2.75;;;4.90;48.80;;;;;;6298835;28;20074;-68
2023/01/22 04:58:40;;;;;;;6.47;2.50;;;4.90;49.00;;;;;;6297474;28;20036;-68
2023/01/22 05:01:41;;;;;;;7.72;3.38;;;4.90;49.20;;;;;;6297713;28;20028;-69
2023/01/22 05:04:42;;;;;;;7.95;2.92;;;4.80;49.50;;;;;;6297895;28;20020;-68
2023/01/22 05:07:43;;;;;;;7.30;3.17;;;4.80;49.80;;;;;;6298676;28;20029;-67
2023/01/22 05:10:44;;;;;;;7.22;3.00;;;4.80;50.10;;;;;;6296354;28;20080;-70
2023/01/22 05:13:51;;;;;;;6.65;2.92;;;4.70;50.40;;;;;;6322861;28;20028;-69
2023/01/22 05:16:54;;;;;;;3.72;2.03;;;4.70;50.60;;;;;;6306965;28;20490;-69
2023/01/22 05:19:54;;;;;;;4.50;2.55;;;4.70;50.70;;;;;;6328763;28;20108;-70
2023/01/22 05:22:55;;;;;;;5.25;2.55;;;4.70;50.80;;;;;;6300657;28;20039;-69
2023/01/22 05:25:58;;;;;;;6.53;3.13;;;4.70;50.90;;;;;;6297402;28;20036;-69
2023/01/22 05:29:12;;;;;;;7.55;3.08;;;4.60;51.10;;;;;;6297005;28;20063;-67
2023/01/22 05:32:34;;;;;;;5.60;2.70;;;4.60;51.30;;;;;;6297885;28;20036;-68
2023/01/22 05:35:35;;;;;;;5.07;2.65;;;4.60;51.50;;;;;;6296887;28;20028;-68
2023/01/22 05:38:36;;;;;;;4.22;1.88;;;4.60;51.70;;;;;;6297619;28;20025;-68
2023/01/22 05:41:37;;;;;;;5.35;2.30;;;4.50;51.70;;;;;;6298023;28;20028;-70
2023/01/22 05:44:38;;;;;;;5.68;2.53;;;4.50;51.90;;;;;;6296458;28;20380;-69
2023/01/22 05:47:39;;;;;;;4.80;2.15;;;4.50;52.10;;;;;;6296015;28;20039;-70
2023/01/22 05:50:49;;;;;;;7.45;2.75;;;4.50;52.20;;;;;;6297701;28;20373;-70
2023/01/22 05:53:50;;;;;;;9.57;3.25;;;4.40;52.30;;;;;;6296036;28;20028;-68
2023/01/22 05:56:51;;;;;;;5.90;3.35;;;4.40;52.40;;;;;;6296131;28;20028;-68
2023/01/22 05:59:52;;;;;;;4.15;2.53;;;4.40;52.60;;;;;;6296954;28;20529;-68
2023/01/22 06:02:58;;;;;;;4.60;2.22;;;4.40;52.60;;;;;;6296168;28;20112;-70
2023/01/22 06:06:05;;;;;;;3.85;2.28;;;4.40;52.70;;;;;;6296007;28;20033;-67
2023/01/22 06:09:06;;;;;;;3.50;2.92;;;4.40;52.70;;;;;;6278761;28;20480;-69
2023/01/22 06:12:10;;;;;;;5.35;2.45;;;4.40;52.70;;;;;;6295818;28;20028;-70
2023/01/22 06:15:11;;;;;;;12.25;3.20;;;4.40;52.80;;;;;;6296128;28;20025;-69
2023/01/22 06:18:15;;;;;;;5.80;3.22;;;4.40;52.90;;;;;;6295189;28;20025;-69
2023/01/22 06:21:16;;;;;;;8.65;2.58;;;4.40;52.80;;;;;;6312686;28;20040;-69
2023/01/22 06:24:18;;;;;;;4.70;2.10;;;4.30;52.90;;;;;;6312448;28;20484;-70
2023/01/22 06:27:19;;;;;;;5.07;2.65;;;4.30;53.00;;;;;;6295750;28;20031;-68
2023/01/22 06:30:30;;;;;;;5.47;2.80;;;4.40;53.20;;;;;;6295536;28;20115;-69
2023/01/22 06:33:35;;;;;;;4.78;2.70;;;4.30;53.30;;;;;;6295556;28;20035;-70
2023/01/22 06:36:37;;;;;;;6.60;2.38;;;4.30;53.30;;;;;;6295595;28;20037;-67
2023/01/22 06:39:39;;;;;;;9.70;3.78;;;4.30;53.40;;;;;;6278681;28;20043;-69
2023/01/22 06:42:52;;;;;;;5.57;2.65;;;4.30;53.50;;;;;;6295381;28;20035;-69
2023/01/22 06:45:54;;;;;;;10.10;3.13;;;4.20;53.50;;;;;;6295100;28;20060;-69
2023/01/22 06:49:09;;;;;;;2.72;1.35;;;4.20;53.70;;;;;;6296764;28;20123;-68
2023/01/22 06:52:10;;;;;;;3.58;2.17;;;4.20;53.70;;;;;;6295116;28;20033;-69
2023/01/22 06:55:11;;;;;;;4.53;3.03;;;4.30;53.80;;;;;;6294858;28;20435;-69
2023/01/22 06:58:13;;;;;;;7.47;3.35;;;4.30;53.70;;;;;;6294718;28;20392;-70
2023/01/22 07:01:14;;;;;;;5.03;2.67;;;4.30;53.70;;;;;;6296839;28;20029;-70
2023/01/22 07:04:15;;;;;;;5.32;2.80;;;4.30;53.60;;;;;;6302101;28;20053;-70
2023/01/22 07:07:16;;;;;;;4.60;3.58;;;4.30;53.50;;;;;;6321363;28;20020;-70
2023/01/22 07:10:16;;;;;;;6.13;2.22;;;4.30;53.50;;;;;;6321094;28;20387;-66
2023/01/22 07:13:17;;;;;;;6.97;3.80;;;4.30;53.60;;;;;;6321256;28;20078;-67
2023/01/22 07:16:18;;;;;;;7.80;3.30;;;4.20;53.80;;;;;;6320009;28;20031;-70
2023/01/22 07:19:19;;;;;;;5.82;2.45;;;4.20;54.00;;;;;;6320876;28;20035;-70
2023/01/22 07:22:20;;;;;;;5.95;3.22;;;4.20;54.10;;;;;;6326785;28;20020;-70
2023/01/22 07:25:20;;;;;;;13.98;4.78;;;4.20;54.30;;;;;;6326584;28;20059;-68
2023/01/22 07:28:21;;;;;;;5.60;1.98;;;4.20;54.30;;;;;;6325315;28;20044;-67
2023/01/22 07:31:22;;;;;;;5.57;2.30;;;4.20;54.30;;;;;;6326255;28;20035;-70
2023/01/22 07:34:23;;;;;;;5.85;2.88;;;4.20;54.30;;;;;;6325773;28;20035;-69
2023/01/22 07:37:24;;;;;;;5.32;2.75;;;4.20;54.30;;;;;;6339851;28;20132;-68
2023/01/22 07:40:25;;;;;;;8.30;2.20;;;4.30;55.10;;;;;;6334568;28;20089;-67
2023/01/22 07:43:26;;;;;;;3.95;3.00;;;4.20;54.60;;;;;;6329544;28;20033;-67
2023/01/22 07:46:27;;;;;;;6.18;2.85;;;4.30;54.90;;;;;;6326836;28;20047;-69
2023/01/22 07:49:28;;;;;;;7.07;3.20;;;4.20;54.80;;;;;;6324432;28;20052;-67
2023/01/22 07:52:29;;;;;;;5.15;3.53;;;4.20;54.90;;;;;;6324678;28;20038;-70
2023/01/22 07:55:30;;;;;;;4.57;2.70;;;4.30;54.90;;;;;;6310646;28;20028;-71
2023/01/22 07:58:31;;;;;;;4.57;2.78;;;4.30;54.90;;;;;;6298290;28;20035;-70
2023/01/22 08:01:32;;;;;;;6.00;2.80;;;4.30;54.90;;;;;;6316655;28;20096;-71
2023/01/22 08:04:33;;;;;;;6.75;2.42;;;4.30;54.80;;;;;;6299356;28;20024;-69
2023/01/22 08:07:34;;;;;;;7.38;2.65;;;4.30;54.90;;;;;;6299884;28;20131;-70
2023/01/22 08:10:36;;;;;;;5.00;2.47;;;4.30;54.80;;;;;;6315017;28;20460;-69
2023/01/22 08:13:37;;;;;;;3.13;2.15;;;4.30;54.40;;;;;;6325083;28;20482;-71
2023/01/22 08:16:38;;;;;;;5.82;2.83;;;4.30;54.10;;;;;;6324996;28;20032;-69
2023/01/22 08:19:39;;;;;;;14.02;3.15;;;4.30;53.90;;;;;;6323237;28;20032;-69
2023/01/22 08:22:39;;;;;;;6.70;2.22;;;4.40;53.60;;;;;;6325031;28;20021;-69
2023/01/22 08:25:40;;;;;;;4.32;2.15;;;4.40;53.20;;;;;;6324740;28;20024;-71
2023/01/22 08:28:41;;;;;;;3.40;2.42;;;4.50;52.80;;;;;;6323166;28;20024;-70
2023/01/22 08:31:42;;;;;;;4.78;2.53;;;4.50;52.30;;;;;;6324018;28;20051;-70
2023/01/22 08:34:43;;;;;;;2.88;1.85;;;4.50;52.10;;;;;;6325148;28;20031;-70
2023/01/22 08:37:44;;;;;;;4.70;2.20;;;4.50;51.80;;;;;;6322995;28;20040;-70
2023/01/22 08:40:49;;;;;;;3.40;2.63;;;4.50;51.60;;;;;;6324464;28;20024;-68
2023/01/22 08:43:52;;;;;;;2.97;1.92;;;4.60;51.60;;;;;;6289579;28;20034;-69
2023/01/22 08:46:53;;;;;;;2.97;1.55;;;4.60;51.40;;;;;;6322948;28;20028;-69
2023/01/22 08:49:54;;;;;;;5.80;2.15;;;4.60;51.20;;;;;;6322366;28;20040;-69
2023/01/22 08:52:56;;;;;;;2.92;1.83;;;4.60;51.10;;;;;;6322806;28;20059;-70
2023/01/22 08:55:57;;;;;;;4.00;1.88;;;4.60;51.10;;;;;;6321219;28;20495;-70
2023/01/22 08:59:00;;;;;;;7.13;3.05;;;4.70;51.00;;;;;;6323552;28;20024;-69
2023/01/22 09:02:01;;;;;;;5.70;2.22;;;4.60;51.00;;;;;;6323783;28;20028;-69
2023/01/22 09:05:02;;;;;;;5.00;2.47;;;4.60;51.00;;;;;;6323791;28;20024;-70
2023/01/22 09:08:03;;;;;;;6.97;3.45;;;4.60;51.10;;;;;;6298210;28;20530;-69
2023/01/22 09:11:04;;;;;;;11.00;1.77;;;4.60;51.30;;;;;;6297140;28;20028;-69
2023/01/22 09:14:07;;;;;;;9.48;3.60;;;4.60;51.50;;;;;;6297062;28;20489;-69
2023/01/22 09:17:08;;;;;;;5.05;2.40;;;4.60;51.70;;;;;;6296944;28;20067;-69
2023/01/22 09:20:09;;;;;;;8.95;3.05;;;4.60;51.80;;;;;;6296583;28;20465;-71
2023/01/22 09:23:10;;;;;;;5.70;2.47;;;4.60;51.80;;;;;;6298353;28;20428;-68
2023/01/22 09:26:11;;;;;;;7.22;3.13;;;4.60;51.90;;;;;;6298115;28;20024;-70
2023/01/22 09:29:12;;;;;;;7.47;3.47;;;4.70;52.00;;;;;;6298013;28;20021;-70
2023/01/22 09:32:13;;;;;;;9.75;3.00;;;4.70;52.00;;;;;;6297823;28;20393;-70
2023/01/22 09:35:14;;;;;;;5.05;1.95;;;4.70;52.00;;;;;;6298120;28;20029;-72
2023/01/22 09:38:15;;;;;;;7.97;3.05;;;4.80;52.00;;;;;;6297435;28;20431;-69
2023/01/22 09:41:35;;;;;;;5.82;2.80;;;4.90;52.20;;;;;;6296257;28;20028;-69
2023/01/22 09:44:40;;;;;;;8.10;3.50;;;4.90;52.00;;;;;;6297685;28;20024;-69
2023/01/22 09:47:46;;;;;;;6.22;2.58;;;4.90;51.80;;;;;;6298977;28;20032;-70
2023/01/22 09:50:48;;;;;;;9.93;3.08;;;4.90;51.70;;;;;;6298573;28;20032;-71
2023/01/22 09:53:56;;;;;;;6.90;3.60;;;5.00;51.60;;;;;;6301479;28;20103;-70
2023/01/22 09:57:00;;;;;;;6.45;3.00;;;5.00;51.60;;;;;;6300231;28;20040;-68
2023/01/22 10:00:02;;;;;;;5.28;2.95;;;5.00;51.40;;;;;;6297547;28;20069;-70
2023/01/22 10:03:30;;;;;;;3.33;1.85;;;5.10;51.40;;;;;;6313800;28;20032;-70
2023/01/22 10:06:32;;;;;;;3.95;2.15;;;5.10;51.20;;;;;;6322641;28;20464;-70
2023/01/22 10:09:33;;;;;;;15.85;1.98;;;5.10;51.00;;;;;;6322160;28;20028;-70
2023/01/22 10:12:34;;;;;;;3.45;2.15;;;5.10;50.50;;;;;;6322401;28;20039;-70
2023/01/22 10:15:35;;;;;;;6.80;3.35;;;5.10;50.40;;;;;;6297130;28;20081;-71
2023/01/22 10:18:49;;;;;;;5.80;3.00;;;5.10;50.40;;;;;;6278431;28;20033;-69
2023/01/22 10:21:57;;;;;;;5.30;2.58;;;5.30;50.30;;;;;;6312662;28;20031;-70
2023/01/22 10:24:58;;;;;;;;;;;5.30;49.80;;;;;;6296077;28;20413;-68
2023/01/22 10:28:01;;;;;;;3.40;2.33;;;5.30;49.90;;;;;;6296544;28;19908;-69
2023/01/22 10:31:01;;;;;;;3.10;2.08;;;5.30;49.50;;;;;;6295885;28;20060;-69
2023/01/22 10:34:35;;;;;;;5.07;2.60;;;5.30;49.30;;;;;;6296804;28;20031;-71
2023/01/22 10:37:54;;;;;;;7.25;3.53;;;5.30;49.20;;;;;;6296729;28;20449;-70
2023/01/22 10:40:58;;;;;;;13.07;2.90;;;5.30;49.20;;;;;;6296760;28;20074;-69
2023/01/22 10:44:15;;;;;;;6.10;2.33;;;5.30;49.20;;;;;;6297156;28;20035;-70
2023/01/22 10:47:19;;;;;;;5.57;2.92;;;5.30;49.00;;;;;;6302576;28;20035;-69
2023/01/22 10:50:20;;;;;;;9.45;2.42;;;5.30;48.90;;;;;;6320167;28;20035;-69
2023/01/22 10:53:33;;;;;;;8.55;3.28;;;5.30;48.70;;;;;;6321657;28;20058;-71
2023/01/22 10:56:39;;;;;;;11.20;3.50;;;5.40;48.70;;;;;;6296547;28;20029;-69
2023/01/22 10:59:46;;;;;;;4.82;2.40;;;5.40;48.60;;;;;;6313778;28;20036;-69
2023/01/22 11:02:49;;;;;;;5.80;2.25;;;5.40;48.60;;;;;;6320074;28;20032;-71
2023/01/22 11:05:56;;;;;;;7.30;3.45;;;5.40;48.70;;;;;;6321383;28;20024;-68
2023/01/22 11:09:10;;;;;;;6.03;2.63;;;5.40;48.60;;;;;;6319966;28;20028;-70
2023/01/22 11:12:28;;;;;;;7.75;3.55;;;5.40;48.30;;;;;;6296248;28;20032;-71
2023/01/22 11:15:47;;;;;;;5.83;2.73;;;5.50;48.20;;;;;;6294861;28;20445;-66
2023/01/22 11:18:52;;;;;;;6.78;3.20;;;5.60;48.10;;;;;;6294384;28;20473;-70
2023/01/22 11:21:55;;;;;;;7.10;2.42;;;5.60;48.00;;;;;;6296188;28;20081;-69
2023/01/22 11:24:56;;;;;;;4.47;2.75;;;5.70;47.80;;;;;;6296133;28;20024;-68
2023/01/22 11:28:40;;;;;;;9.23;3.10;;;5.70;47.80;;;;;;6295784;28;20123;-69
2023/01/22 11:31:41;;;;;;;7.85;2.78;;;5.80;47.80;;;;;;6294753;28;20070;-67
2023/01/22 11:35:17;;;;;;;5.38;3.33;;;5.80;47.80;;;;;;6294819;28;20024;-70
2023/01/22 11:38:30;;;;;;;4.90;2.40;;;5.80;47.80;;;;;;6292966;28;20082;-69
2023/01/22 11:41:42;;;;;;;9.70;3.83;;;5.80;47.70;;;;;;6276338;28;20036;-69
2023/01/22 11:44:49;;;;;;;8.50;3.15;;;5.80;47.70;;;;;;6310354;28;20495;-68
2023/01/22 11:48:05;;;;;;;6.00;2.67;;;5.80;47.80;;;;;;6318281;28;20096;-68
2023/01/22 11:51:38;;;;;;;6.53;2.95;;;5.80;47.70;;;;;;6301914;28;20051;-69
2023/01/22 11:55:00;;;;;;;5.28;3.10;;;5.80;47.60;;;;;;6301042;28;20032;-70
2023/01/22 11:58:30;;;;;;;11.98;3.50;;;5.80;48.10;;;;;;6318671;28;20435;-69
2023/01/22 12:01:52;;;;;;;6.63;2.95;;;5.80;47.50;;;;;;6325264;28;20484;-68
2023/01/22 12:05:01;;;;;;;5.97;2.95;;;5.80;47.50;;;;;;6324227;28;20062;-68
2023/01/22 12:08:26;;;;;;;12.52;4.20;;;5.80;47.50;;;;;;6298403;28;20101;-67
2023/01/22 12:11:48;;;;;;;7.85;3.65;;;5.90;47.60;;;;;;6298640;28;20044;-68
2023/01/22 12:15:09;;;;;;;7.35;3.55;;;5.80;47.50;;;;;;6299638;28;20051;-68
2023/01/22 12:18:30;;;;;;;10.65;3.30;;;5.90;47.70;;;;;;6299684;28;20032;-69
2023/01/22 12:22:12;;;;;;;14.93;3.45;;;6.00;47.70;;;;;;6299913;28;20032;-70
2023/01/22 12:25:40;;;;;;;11.07;3.75;;;6.00;47.50;;;;;;6287340;28;20112;-70
2023/01/22 12:29:18;;;;;;;8.18;3.90;;;6.00;47.50;;;;;;6254901;28;20064;-70
2023/01/22 12:32:21;;;;;;;8.00;4.07;;;6.00;47.50;;;;;;6222419;28;20046;-70
2023/01/22 12:35:25;;;;;;;10.07;3.10;;;6.00;47.50;;;;;;6206191;28;20048;-69
2023/01/22 12:38:35;;;;;;;6.47;3.35;;;6.00;47.70;;;;;;6221979;28;20120;-69
2023/01/22 12:41:45;;;;;;;7.72;3.65;;;6.10;47.80;;;;;;6205796;28;20081;-68
2023/01/22 12:44:51;;;;;;;11.98;3.72;;;6.10;47.80;;;;;;6206030;28;20082;-70
2023/01/22 12:48:16;;;;;;;9.95;4.22;;;6.10;47.80;;;;;;6221682;28;20117;-69
2023/01/22 12:51:25;;;;;;;5.07;2.65;;;6.00;47.90;;;;;;6221803;28;20042;-70
2023/01/22 12:54:35;;;;;;;15.07;4.20;;;6.10;48.00;;;;;;6221613;28;20498;-69
2023/01/22 12:57:39;;;;;;;9.75;4.30;;;6.10;48.00;;;;;;6221386;28;20117;-70
2023/01/22 13:00:42;;;;;;;6.93;4.43;;;6.20;48.00;;;;;;6221884;28;20046;-69
2023/01/22 13:03:43;;;;;;;7.97;4.32;;;6.20;47.90;;;;;;6204741;28;20030;-68
2023/01/22 13:06:45;;;;;;;8.82;3.47;;;6.20;47.90;;;;;;6266958;28;20048;-68
2023/01/22 13:09:46;;;;;;;8.65;3.45;;;6.30;47.90;;;;;;6297908;28;20435;-69
2023/01/22 13:12:52;;;;;;;5.65;3.25;;;6.40;48.10;;;;;;6280480;28;20062;-67
2023/01/22 13:16:04;;;;;;;10.48;3.95;;;6.40;47.90;;;;;;6314123;28;20056;-69
2023/01/22 13:19:22;;;;;;;6.45;2.97;;;6.40;47.70;;;;;;6296474;28;20036;-69
2023/01/22 13:22:26;;;;;;;8.43;4.47;;;6.40;47.50;;;;;;6298080;28;20077;-70
2023/01/22 13:25:30;;;;;;;8.45;3.78;;;6.40;47.50;;;;;;6298119;28;20052;-68
2023/01/22 13:28:32;;;;;;;6.38;3.38;;;6.40;47.40;;;;;;6297612;28;20031;-69
2023/01/22 13:31:33;;;;;;;9.25;4.57;;;6.50;47.40;;;;;;6297998;28;20025;-71
2023/01/22 13:34:34;;;;;;;6.60;3.95;;;6.40;47.40;;;;;;6313737;28;20028;-69
2023/01/22 13:37:35;;;;;;;11.52;3.90;;;6.40;47.50;;;;;;6321358;28;20410;-69
2023/01/22 13:40:36;;;;;;;5.68;3.17;;;6.40;47.40;;;;;;6323119;28;20020;-69
2023/01/22 13:43:38;;;;;;;10.32;4.60;;;6.40;47.30;;;;;;6321524;28;20043;-69
2023/01/22 13:46:39;;;;;;;13.85;3.95;;;6.30;47.30;;;;;;6321355;28;20024;-69
2023/01/22 13:49:43;;;;;;;8.48;3.60;;;6.30;47.40;;;;;;6322177;28;20058;-71
2023/01/22 13:52:44;;;;;;;8.27;3.20;;;6.30;47.20;;;;;;6322718;28;20028;-71
2023/01/22 13:55:45;;;;;;;4.18;2.75;;;6.30;47.10;;;;;;6321050;28;20028;-69
2023/01/22 13:58:46;;;;;;;8.57;3.70;;;6.50;47.10;;;;;;6321311;28;20029;-70
2023/01/22 14:01:48;;;;;;;11.15;3.65;;;6.30;46.90;;;;;;6322321;28;20540;-70
2023/01/22 14:04:49;;;;;;;9.70;4.50;;;6.30;47.00;;;;;;6321066;28;20035;-68
2023/01/22 14:07:50;;;;;;;5.43;2.78;;;6.30;47.00;;;;;;6321928;28;20430;-70
2023/01/22 14:10:59;;;;;;;7.70;4.00;;;6.30;47.40;;;;;;6322303;28;20039;-71
2023/01/22 14:14:00;;;;;;;10.52;4.75;;;6.30;47.90;;;;;;6322637;28;20035;-70
2023/01/22 14:17:00;;;;;;;8.40;4.20;;;6.30;48.20;;;;;;6323655;28;20020;-70
2023/01/22 14:20:03;;;;;;;6.30;3.63;;;6.40;47.70;;;;;;6330087;28;20031;-68
2023/01/22 14:23:04;;;;;;;7.43;3.17;;;6.30;47.50;;;;;;6327191;28;20031;-69
2023/01/22 14:26:07;;;;;;;11.25;4.75;;;6.30;47.50;;;;;;6335307;28;20040;-68
2023/01/22 14:29:08;;;;;;;15.13;5.10;;;6.30;47.90;;;;;;6327826;28;20503;-70
2023/01/22 14:32:09;;;;;;;9.75;4.45;;;6.30;47.90;;;;;;6322591;28;20059;-69
2023/01/22 14:35:18;;;;;;;10.00;4.90;;;6.30;47.90;;;;;;6321808;28;20028;-70
2023/01/22 14:38:19;;;;;;;10.57;4.35;;;6.30;48.00;;;;;;6321003;28;20036;-69
2023/01/22 14:41:20;;;;;;;9.43;3.88;;;6.30;48.90;;;;;;6321663;28;20467;-69
2023/01/22 14:44:21;;;;;;;6.72;4.25;;;6.20;50.60;;;;;;6320024;28;20099;-68
2023/01/22 14:47:23;;;;;;;9.10;4.20;;;6.10;50.50;;;;;;6322141;28;20038;-71
2023/01/22 14:50:24;;;;;;;11.52;3.88;;;6.00;50.70;;;;;;6321014;28;20028;-70
2023/01/22 14:53:25;;;;;;;7.05;3.80;;;6.10;50.90;;;;;;6321060;28;20044;-70
2023/01/22 14:56:26;;;;;;;8.05;3.78;;;6.00;51.10;;;;;;6320659;28;20028;-70
2023/01/22 14:59:26;;;;;;;9.73;4.47;;;6.00;51.70;;;;;;6305206;28;20025;-69
2023/01/22 15:02:27;;;;;;;6.53;3.05;;;6.00;52.10;;;;;;6296079;28;20120;-70
2023/01/22 15:05:28;;;;;;;9.10;4.40;;;6.00;52.30;;;;;;6296231;28;20419;-69
2023/01/22 15:08:29;;;;;;;7.72;3.92;;;6.00;52.40;;;;;;6295703;28;20024;-68
2023/01/22 15:11:30;;;;;;;9.43;3.85;;;6.00;52.60;;;;;;6295075;28;20024;-70
2023/01/22 15:14:31;;;;;;;7.93;3.85;;;6.00;52.70;;;;;;6295874;28;20074;-68
2023/01/22 15:17:32;;;;;;;9.85;4.03;;;5.90;52.90;;;;;;6295568;28;20033;-71
2023/01/22 15:20:33;;;;;;;11.25;3.67;;;5.90;53.10;;;;;;6295893;28;20785;-71
2023/01/22 15:23:34;;;;;;;4.85;3.15;;;5.90;53.20;;;;;;6294776;28;20077;-68
2023/01/22 15:26:36;;;;;;;7.57;3.80;;;5.90;53.40;;;;;;6295828;28;20060;-69
2023/01/22 15:29:38;;;;;;;8.50;2.92;;;5.80;53.40;;;;;;6311436;28;20073;-68
2023/01/22 15:32:39;;;;;;;6.68;3.63;;;5.80;53.40;;;;;;6320752;28;20384;-70
2023/01/22 15:35:39;;;;;;;10.02;4.28;;;5.90;53.40;;;;;;6320677;28;20028;-69
2023/01/22 15:38:40;;;;;;;5.75;3.55;;;5.90;53.40;;;;;;6319986;28;20047;-70
2023/01/22 15:41:42;;;;;;;8.40;4.00;;;5.90;53.50;;;;;;6322742;28;20028;-69
2023/01/22 15:44:43;;;;;;;10.55;4.63;;;5.80;53.60;;;;;;6324082;28;20054;-67
2023/01/22 15:47:44;;;;;;;10.60;4.40;;;5.80;53.60;;;;;;6307052;28;20337;-68
2023/01/22 15:50:45;;;;;;;8.30;3.85;;;5.80;53.80;;;;;;6325146;28;20031;-70
2023/01/22 15:53:51;;;;;;;8.55;4.43;;;5.70;53.90;;;;;;6323483;28;20032;-69
2023/01/22 15:56:52;;;;;;;6.75;3.95;;;5.80;54.10;;;;;;6300026;28;20123;-69
2023/01/22 15:59:53;;;;;;;6.63;4.15;;;5.80;54.20;;;;;;6298481;28;20032;-71
2023/01/22 16:02:54;;;;;;;6.60;3.80;;;5.80;54.30;;;;;;6299920;28;20029;-71
2023/01/22 16:06:08;;;;;;;6.13;3.28;;;5.80;54.40;;;;;;6300144;28;20107;-70
2023/01/22 16:09:09;;;;;;;8.00;4.03;;;5.80;54.50;;;;;;6298392;28;20571;-69
2023/01/22 16:12:10;;;;;;;8.35;4.43;;;5.80;54.60;;;;;;6298556;28;20025;-69
2023/01/22 16:15:13;;;;;;;12.27;4.00;;;5.70;54.50;;;;;;6298852;28;20044;-70
2023/01/22 16:18:14;;;;;;;7.88;4.35;;;5.70;54.70;;;;;;6300023;28;20033;-69